Time;durP1;ratioP1;P1;durP2;ratioP2;P2;SDS_P1;SDS_P2;PMS_P1;PMS_P2;Temp;Humidity;BMP_temperature;BMP_pressure;BME280_temperature;BME280_humidity;BME280_pressure;Samples;Min_cycle;Max_cycle;Signal;HPM_P1;HPM_P2
2023/10/04 00:01:57;;;;;;;;;;;;;;;12.83;100.00;102152.78;4886342;29;20512;-84
2023/10/04 00:04:55;;;;;;;;;;;;;;;12.83;100.00;102163.41;4861586;29;19935;-85
2023/10/04 00:07:42;;;;;;;;;;;;;;;12.79;100.00;102161.75;4877748;29;20622;-86
2023/10/04 00:10:30;;;;;;;;;;;;;;;12.76;100.00;102165.38;4890930;29;19935;-84
2023/10/04 00:13:28;;;;;;;;;;;;;;;12.73;100.00;102169.94;4869664;29;19957;-85
2023/10/04 00:16:14;;;;;;;;;;;;;;;12.70;100.00;102172.69;4884173;29;19931;-85
2023/10/04 00:19:05;;;;;;;;;;;;;;;12.69;100.00;102168.31;4876279;29;20900;-84
2023/10/04 00:21:57;;;;;;;;;;;;;;;12.68;100.00;102174.56;4882039;29;20024;-85
2023/10/04 00:25:03;;;;;;;;;;;;;;;12.67;100.00;102178.09;4887425;29;19946;-83
2023/10/04 00:27:52;;;;;;;;;;;;;;;12.66;100.00;102182.56;4869648;29;20637;-84
2023/10/04 00:30:37;;;;;;;;;;;;;;;12.66;100.00;102182.56;4915352;29;19946;-82
2023/10/04 00:38:48;;;;;;;;;;;;;;;12.61;100.00;102193.34;5134489;22;19930;-82
2023/10/04 00:41:35;;;;;;;;;;;;;;;12.63;100.00;102180.88;4974586;28;19937;-84
2023/10/04 00:44:21;;;;;;;;;;;;;;;12.65;100.00;102193.22;4959820;28;19930;-84
2023/10/04 00:47:06;;;;;;;;;;;;;;;12.64;100.00;102197.66;4946152;28;19936;-85
2023/10/04 00:49:52;;;;;;;;;;;;;;;12.61;100.00;102188.03;4972719;28;19944;-85
2023/10/04 00:52:38;;;;;;;;;;;;;;;12.61;100.00;102192.47;4946174;28;20003;-84
2023/10/04 00:55:25;;;;;;;;;;;;;;;12.60;100.00;102182.75;4974450;28;19930;-84
2023/10/04 00:58:18;;;;;;;;;;;;;;;12.60;100.00;102190.72;4966295;28;19930;-85
2023/10/04 01:01:06;;;;;;;;;;;;;;;12.61;100.00;102193.34;4946538;28;19933;-85
2023/10/04 01:03:52;;;;;;;;;;;;;;;12.60;100.00;102191.59;4957444;28;19998;-82
2023/10/04 01:06:40;;;;;;;;;;;;;;;12.59;100.00;102195.16;4933348;28;20022;-83
2023/10/04 01:09:29;;;;;;;;;;;;;;;12.60;100.00;102194.25;4940247;28;20137;-82
2023/10/04 01:12:20;;;;;;;;;;;;;;;12.66;100.00;102197.63;4928443;28;19940;-82
2023/10/04 01:15:29;;;;;;;;;;;;;;;12.68;100.00;102196.66;4930016;28;19933;-85
2023/10/04 01:18:15;;;;;;;;;;;;;;;12.69;100.00;102200.19;4954170;28;21730;-83
2023/10/04 01:21:05;;;;;;;;;;;;;;;12.68;100.00;102206.44;4930033;28;19934;-85
2023/10/04 01:23:52;;;;;;;;;;;;;;;12.65;100.00;102209.19;4939722;28;19973;-83
2023/10/04 01:26:38;;;;;;;;;;;;;;;12.62;100.00;102208.38;4954898;28;19926;-85
2023/10/04 01:29:24;;;;;;;;;;;;;;;12.60;100.00;102199.56;4956310;28;19934;-86
2023/10/04 01:32:19;;;;;;;;;;;;;;;12.55;100.00;102188.22;4956957;28;19926;-84
2023/10/04 01:50:15;;;;;;;;;;;;;;;12.44;100.00;102187.69;4970661;28;19926;-82
2023/10/04 01:53:05;;;;;;;;;;;;;;;12.42;100.00;102187.75;4951197;28;19948;-84
2023/10/04 01:56:02;;;;;;;;;;;;;;;12.41;100.00;102188.66;4963478;28;20187;-83
2023/10/04 01:58:48;;;;;;;;;;;;;;;12.40;100.00;102197.56;4952225;28;20471;-84
2023/10/04 02:01:37;;;;;;;;;;;;;;;12.40;100.00;102194.91;4954299;28;19948;-83
2023/10/04 02:04:25;;;;;;;;;;;;;;;12.41;100.00;102196.63;4954387;28;20373;-86
2023/10/04 02:07:16;;;;;;;;;;;;;;;12.41;100.00;102193.97;4949918;28;19933;-84
2023/10/04 02:10:02;;;;;;;;;;;;;;;12.42;100.00;102202.81;4952616;28;19941;-84
2023/10/04 02:12:50;;;;;;;;;;;;;;;12.39;100.00;102198.47;4952648;28;19930;-83
2023/10/04 02:15:37;;;;;;;;;;;;;;;12.38;100.00;102210.00;4961131;28;19930;-84
2023/10/04 02:18:25;;;;;;;;;;;;;;;12.38;100.00;102211.78;4945225;28;19956;-86
2023/10/04 02:21:11;;;;;;;;;;;;;;;12.38;100.00;102217.09;4959540;28;19985;-85
2023/10/04 02:24:02;;;;;;;;;;;;;;;12.35;100.00;102210.97;4943849;28;19926;-86
2023/10/04 02:26:50;;;;;;;;;;;;;;;12.33;100.00;102214.59;4957171;28;20385;-84
2023/10/04 02:29:44;;;;;;;;;;;;;;;12.32;100.00;102228.78;4959365;28;19946;-84
2023/10/04 02:32:34;;;;;;;;;;;;;;;12.30;100.00;102225.28;4948340;28;20976;-83
2023/10/04 02:35:31;;;;;;;;;;;;;;;12.29;100.00;102224.44;4946160;28;19961;-82
2023/10/04 02:38:19;;;;;;;;;;;;;;;12.29;100.00;102228.88;4959251;28;19985;-85
2023/10/04 02:41:10;;;;;;;;;;;;;;;12.28;100.00;102233.34;4959219;28;19930;-82
2023/10/04 02:43:56;;;;;;;;;;;;;;;12.28;100.00;102243.94;4950543;28;19922;-84
2023/10/04 02:46:44;;;;;;;;;;;;;;;12.28;100.00;102236.00;4949942;28;19933;-85
2023/10/04 02:49:32;;;;;;;;;;;;;;;12.26;100.00;102231.63;4964451;28;19934;-86
2023/10/04 02:52:19;;;;;;;;;;;;;;;12.27;100.00;102231.59;4946532;28;19942;-85
2023/10/04 02:55:06;;;;;;;;;;;;;;;12.28;100.00;102228.03;4957943;28;20025;-85
2023/10/04 02:57:52;;;;;;;;;;;;;;;12.30;100.00;102239.44;4945730;28;19937;-85
2023/10/04 03:00:49;;;;;;;;;;;;;;;12.31;100.00;102240.34;4946702;28;19936;-84
2023/10/04 03:07:05;;;;;;;;;;;;;;;12.25;100.00;102233.41;4961182;28;20069;-89
2023/10/04 03:10:03;;;;;;;;;;;;;;;12.23;100.00;102229.94;4950541;28;19965;-85
2023/10/04 03:12:52;;;;;;;;;;;;;;;12.20;100.00;102230.03;4934930;28;19922;-85
2023/10/04 03:15:55;;;;;;;;;;;;;;;12.18;100.00;102229.19;4958756;28;19986;-85
2023/10/04 03:18:47;;;;;;;;;;;;;;;12.16;100.00;102239.00;4937772;28;19978;-85
2023/10/04 03:21:33;;;;;;;;;;;;;;;12.11;100.00;102257.72;4964016;28;20944;-85
2023/10/04 03:24:19;;;;;;;;;;;;;;;12.09;100.00;102244.50;4949386;23;19942;-84
2023/10/04 03:27:05;;;;;;;;;;;;;;;12.08;100.00;102237.44;4963904;28;19937;-84
2023/10/04 03:29:55;;;;;;;;;;;;;;;12.07;100.00;102238.38;4952568;28;19949;-85
2023/10/04 03:32:44;;;;;;;;;;;;;;;12.09;100.00;102255.13;4953561;28;19977;-83
2023/10/04 03:35:29;;;;;;;;;;;;;;;12.12;100.00;102247.97;4953011;28;19922;-84
2023/10/04 03:38:15;;;;;;;;;;;;;;;12.11;100.00;102251.53;4968873;28;19938;-85
2023/10/04 03:41:06;;;;;;;;;;;;;;;12.09;100.00;102248.91;4949537;28;19926;-83
2023/10/04 03:43:54;;;;;;;;;;;;;;;12.12;100.00;102242.66;4964606;28;19985;-86
2023/10/04 03:46:43;;;;;;;;;;;;;;;12.12;100.00;102243.53;4969700;28;19934;-85
2023/10/04 03:49:31;;;;;;;;;;;;;;;12.13;100.00;102257.66;4935069;28;19952;-84
2023/10/04 03:52:27;;;;;;;;;;;;;;;12.11;100.00;102259.50;4950636;28;20692;-83
2023/10/04 03:55:13;;;;;;;;;;;;;;;12.10;100.00;102261.31;4965150;28;19937;-82
2023/10/04 03:58:04;;;;;;;;;;;;;;;12.09;100.00;102276.34;4960270;28;19941;-84
2023/10/04 04:00:50;;;;;;;;;;;;;;;12.07;100.00;102269.34;4923971;28;20037;-84
2023/10/04 04:03:36;;;;;;;;;;;;;;;12.05;100.00;102256.09;4949883;28;19935;-83
2023/10/04 04:06:22;;;;;;;;;;;;;;;12.05;100.00;102263.22;4946695;28;19989;-85
2023/10/04 04:09:12;;;;;;;;;;;;;;;12.03;100.00;102262.34;4912964;28;19937;-86
2023/10/04 04:14:26;;;;;;;;;;;;;;;12.02;100.00;102252.63;4992793;23;19930;-84
2023/10/04 04:17:12;;;;;;;;;;;;;;;12.01;100.00;102248.25;4974286;28;19926;-84
2023/10/04 04:19:58;;;;;;;;;;;;;;;11.99;100.00;102253.59;4975850;28;19934;-83
2023/10/04 04:22:46;;;;;;;;;;;;;;;12.01;100.00;102251.78;4973700;28;20001;-84
2023/10/04 04:25:32;;;;;;;;;;;;;;;12.01;100.00;102242.94;4960668;28;19926;-84
2023/10/04 04:28:19;;;;;;;;;;;;;;;12.01;100.00;102240.28;4973276;28;19941;-84
2023/10/04 04:31:14;;;;;;;;;;;;;;;12.01;100.00;102249.13;4974946;28;20293;-84
2023/10/04 04:34:00;;;;;;;;;;;;;;;12.00;100.00;102241.22;4974541;28;19930;-86
2023/10/04 04:36:46;;;;;;;;;;;;;;;11.99;100.00;102237.66;4955044;28;19926;-84
2023/10/04 04:39:33;;;;;;;;;;;;;;;11.97;100.00;102231.53;4954227;28;20452;-82
2023/10/04 04:42:35;;;;;;;;;;;;;;;11.97;100.00;102244.81;4972910;28;19945;-83
2023/10/04 04:45:24;;;;;;;;;;;;;;;11.98;100.00;102246.56;4960584;28;20394;-84
2023/10/04 04:48:10;;;;;;;;;;;;;;;11.98;100.00;102246.56;4944492;28;20393;-83
2023/10/04 04:50:57;;;;;;;;;;;;;;;11.99;100.00;102247.44;4959295;28;20045;-85
2023/10/04 04:53:45;;;;;;;;;;;;;;;12.00;100.00;102250.06;4957975;28;20016;-84
2023/10/04 04:56:35;;;;;;;;;;;;;;;12.01;100.00;102254.44;4962035;28;20353;-85
2023/10/04 04:59:28;;;;;;;;;;;;;;;12.02;100.00;102250.88;4967058;28;19938;-83
2023/10/04 05:02:15;;;;;;;;;;;;;;;12.05;100.00;102264.06;4978979;28;19930;-85
2023/10/04 05:05:02;;;;;;;;;;;;;;;12.07;100.00;102259.59;4965148;28;19929;-85
2023/10/04 05:07:49;;;;;;;;;;;;;;;12.13;100.00;102273.59;4972513;28;19930;-84
2023/10/04 05:10:44;;;;;;;;;;;;;;;12.14;100.00;102278.00;4961394;28;19940;-83
2023/10/04 05:15:59;;;;;;;;;;;;;;;12.14;100.00;102270.91;5014880;23;19953;-87
2023/10/04 05:18:45;;;;;;;;;;;;;;;12.14;100.00;102280.66;4947712;28;19930;-83
2023/10/04 05:21:31;;;;;;;;;;;;;;;12.14;100.00;102286.81;4949523;28;19930;-84
2023/10/04 05:24:17;;;;;;;;;;;;;;;12.16;100.00;102292.09;4975543;28;19930;-83
2023/10/04 05:27:05;;;;;;;;;;;;;;;12.18;100.00;102295.56;4960209;28;19947;-86
2023/10/04 05:29:51;;;;;;;;;;;;;;;12.19;100.00;102299.97;4951719;28;19992;-83
2023/10/04 05:32:36;;;;;;;;;;;;;;;12.22;100.00;102297.25;4959331;28;19926;-84
2023/10/04 05:35:23;;;;;;;;;;;;;;;12.24;100.00;102303.38;4973765;28;19930;-83
2023/10/04 05:38:11;;;;;;;;;;;;;;;12.26;100.00;102300.66;4974067;28;19934;-83
2023/10/04 05:40:57;;;;;;;;;;;;;;;12.28;100.00;102296.19;4957318;28;19936;-84
2023/10/04 05:43:43;;;;;;;;;;;;;;;12.30;100.00;102299.66;4963227;28;20025;-84
2023/10/04 05:46:29;;;;;;;;;;;;;;;12.31;100.00;102310.22;4963862;28;20301;-82
2023/10/04 05:49:14;;;;;;;;;;;;;;;12.33;100.00;102311.03;4951044;28;19965;-82
2023/10/04 05:52:01;;;;;;;;;;;;;;;12.34;100.00;102319.91;4960649;28;19941;-82
2023/10/04 05:54:48;;;;;;;;;;;;;;;12.34;100.00;102320.78;4944964;28;20024;-84
2023/10/04 05:57:35;;;;;;;;;;;;;;;12.34;100.00;102318.13;4962028;28;19941;-84
2023/10/04 06:00:28;;;;;;;;;;;;;;;12.32;100.00;102316.44;4963143;28;19948;-84
2023/10/04 06:03:15;;;;;;;;;;;;;;;12.28;100.00;102318.31;4932540;28;19926;-85
2023/10/04 06:06:00;;;;;;;;;;;;;;;12.27;100.00;102316.56;4927917;28;21488;-85
2023/10/04 06:08:47;;;;;;;;;;;;;;;12.27;100.00;102316.56;4956644;28;19966;-82
2023/10/04 06:11:35;;;;;;;;;;;;;;;12.26;100.00;102317.47;4942000;28;19957;-83
2023/10/04 06:14:22;;;;;;;;;;;;;;;12.26;100.00;102322.75;4953272;28;19931;-83
2023/10/04 06:17:07;;;;;;;;;;;;;;;12.25;100.00;102328.16;4953211;28;20389;-83
2023/10/04 06:19:54;;;;;;;;;;;;;;;12.23;100.00;102336.16;4958944;28;20552;-83
2023/10/04 06:22:40;;;;;;;;;;;;;;;12.20;100.00;102341.56;4943172;28;20183;-83
2023/10/04 06:25:32;;;;;;;;;;;;;;;12.18;100.00;102333.63;4933012;28;20023;-83
2023/10/04 06:28:18;;;;;;;;;;;;;;;12.19;100.00;102342.44;4960627;28;20514;-82
2023/10/04 06:31:06;;;;;;;;;;;;;;;12.18;100.00;102349.56;4930666;28;19933;-84
2023/10/04 06:33:53;;;;;;;;;;;;;;;12.18;100.00;102354.88;4956870;28;20409;-83
2023/10/04 06:36:39;;;;;;;;;;;;;;;12.18;100.00;102354.88;4958169;28;19930;-84
2023/10/04 06:39:25;;;;;;;;;;;;;;;12.17;100.00;102347.81;4941395;28;19977;-82
2023/10/04 06:42:13;;;;;;;;;;;;;;;12.18;100.00;102351.31;4959179;28;20402;-83
2023/10/04 06:44:59;;;;;;;;;;;;;;;12.19;100.00;102342.44;4958133;28;19926;-83
2023/10/04 06:47:46;;;;;;;;;;;;;;;12.21;100.00;102351.25;4957981;28;20069;-82
2023/10/04 06:50:38;;;;;;;;;;;;;;;12.22;100.00;102347.69;4959505;28;19933;-83
2023/10/04 06:53:25;;;;;;;;;;;;;;;12.25;100.00;102355.56;4929980;28;19926;-83
2023/10/04 06:56:14;;;;;;;;;;;;;;;12.31;100.00;102355.38;4957473;28;20381;-84
2023/10/04 06:59:00;;;;;;;;;;;;;;;12.36;100.00;102369.41;4944799;28;20025;-84
2023/10/04 07:01:46;;;;;;;;;;;;;;;12.40;100.00;102364.00;4945491;28;19930;-84
2023/10/04 07:04:37;;;;;;;;;;;;;;;12.44;100.00;102373.63;4959326;28;19930;-84
2023/10/04 07:07:23;;;;;;;;;;;;;;;12.47;100.00;102377.06;4945682;28;20640;-83
2023/10/04 07:10:09;;;;;;;;;;;;;;;12.53;100.00;102381.31;4958666;28;19948;-83
2023/10/04 07:12:59;;;;;;;;;;;;;;;12.58;100.00;102384.72;4960366;28;19948;-82
2023/10/04 07:15:44;;;;;;;;;;;;;;;12.65;100.00;102373.91;4960732;28;19972;-84
2023/10/04 07:18:30;;;;;;;;;;;;;;;12.72;100.00;102381.66;4960386;28;19988;-83
2023/10/04 07:21:20;;;;;;;;;;;;;;;12.77;100.00;102385.03;4958512;28;20057;-82
2023/10/04 07:24:06;;;;;;;;;;;;;;;12.83;100.00;102389.31;4958966;28;19939;-82
2023/10/04 07:26:55;;;;;;;;;;;;;;;12.89;100.00;102388.22;4931438;28;19940;-82
2023/10/04 07:29:41;;;;;;;;;;;;;;;12.96;100.00;102389.78;4959278;28;19927;-82
2023/10/04 07:32:28;;;;;;;;;;;;;;;13.04;100.00;102392.22;4963163;28;19931;-82
2023/10/04 07:35:18;;;;;;;;;;;;;;;13.10;100.00;102394.69;4963828;28;19926;-84
2023/10/04 07:38:11;;;;;;;;;;;;;;;13.15;100.00;102392.75;4956448;28;20362;-84
2023/10/04 07:40:57;;;;;;;;;;;;;;;13.18;100.00;102397.06;4937492;28;19930;-85
2023/10/04 07:43:42;;;;;;;;;;;;;;;13.23;100.00;102402.28;4957329;28;19931;-83
2023/10/04 07:46:34;;;;;;;;;;;;;;;13.25;100.00;102403.09;4955854;28;19934;-86
2023/10/04 07:49:21;;;;;;;;;;;;;;;13.28;100.00;102397.66;4951569;28;20104;-82
2023/10/04 07:52:09;;;;;;;;;;;;;;;13.33;100.00;102393.06;4950915;28;20100;-86
2023/10/04 07:54:59;;;;;;;;;;;;;;;13.37;100.00;102389.41;4952859;28;20374;-88
2023/10/04 07:57:46;;;;;;;;;;;;;;;13.46;100.00;102398.03;4944111;28;19934;-83
2023/10/04 08:00:34;;;;;;;;;;;;;;;13.53;100.00;102399.56;4926619;28;20293;-85
2023/10/04 08:03:22;;;;;;;;;;;;;;;13.61;100.00;102392.19;4951422;28;20040;-85
2023/10/04 08:06:11;;;;;;;;;;;;;;;13.73;100.00;102390.88;4953306;28;19954;-85
2023/10/04 08:08:57;;;;;;;;;;;;;;;13.83;100.00;102396.75;4951741;28;19941;-84
2023/10/04 08:11:43;;;;;;;;;;;;;;;13.92;100.00;102396.47;4951477;28;19934;-85
2023/10/04 08:14:29;;;;;;;;;;;;;;;13.99;100.00;102398.00;4955226;28;19965;-84
2023/10/04 08:17:16;;;;;;;;;;;;;;;14.04;100.00;102389.84;4954723;28;19930;-88
2023/10/04 08:20:05;;;;;;;;;;;;;;;14.10;100.00;102397.59;4954617;28;19930;-84
2023/10/04 08:22:51;;;;;;;;;;;;;;;14.19;100.00;102388.41;4926497;28;20065;-88
2023/10/04 08:25:37;;;;;;;;;;;;;;;14.28;100.00;102395.22;4933313;28;19953;-85
2023/10/04 08:28:25;;;;;;;;;;;;;;;14.39;100.00;102400.16;4954039;28;19927;-83
2023/10/04 08:31:16;;;;;;;;;;;;;;;14.48;100.00;102405.13;4953341;28;20373;-84
2023/10/04 08:34:06;;;;;;;;;;;;;;;14.57;100.00;102413.69;4930301;28;19937;-85
2023/10/04 08:36:52;;;;;;;;;;;;;;;14.62;100.00;102417.06;4954358;28;19934;-84
2023/10/04 08:39:41;;;;;;;;;;;;;;;14.63;100.00;102408.13;4954658;28;19935;-84
2023/10/04 08:42:33;;;;;;;;;;;;;;;14.65;100.00;102416.94;4956024;28;19930;-84
2023/10/04 08:45:19;;;;;;;;;;;;;;;14.70;100.00;102422.13;4941755;28;20420;-86
2023/10/04 08:48:06;;;;;;;;;;;;;;;14.77;100.00;102426.31;4929488;28;20070;-85
2023/10/04 08:50:54;;;;;;;;;;;;;;;14.82;100.00;102434.13;4949986;28;19909;-83
2023/10/04 08:54:09;;;;;;;;;;;;;;;14.84;100.00;102426.94;4951198;28;19922;-86
2023/10/04 08:57:14;;;;;;;;;;;;;;;14.86;100.00;102446.44;4952477;28;19958;-86
2023/10/04 09:00:00;;;;;;;;;;;;;;;14.90;100.00;102432.03;4941205;28;19980;-87
2023/10/04 09:02:47;;;;;;;;;;;;;;;14.91;100.00;102429.31;4935782;28;19937;-87
2023/10/04 09:05:33;;;;;;;;;;;;;;;14.94;100.00;102433.66;4942080;28;19930;-86
2023/10/04 09:08:19;;;;;;;;;;;;;;;15.01;100.00;102432.50;4933187;28;19926;-87
2023/10/04 09:11:10;;;;;;;;;;;;;;;15.06;100.00;102426.97;4958132;28;19934;-86
2023/10/04 09:13:56;;;;;;;;;;;;;;;15.12;100.00;102431.19;4942436;28;19938;-85
2023/10/04 09:16:42;;;;;;;;;;;;;;;15.14;100.00;102429.34;4945441;28;19934;-84
2023/10/04 09:19:32;;;;;;;;;;;;;;;15.18;100.00;102431.84;4961617;28;19953;-85
2023/10/04 09:22:26;;;;;;;;;;;;;;;15.23;100.00;102418.31;4959394;28;19965;-85
2023/10/04 09:25:12;;;;;;;;;;;;;;;15.29;100.00;102427.84;4948356;28;19989;-86
2023/10/04 09:27:57;;;;;;;;;;;;;;;15.32;100.00;102435.75;4942819;28;19949;-86
2023/10/04 09:33:56;;;;;;;;;;;;;;;15.42;100.00;102420.22;4953133;28;19940;-81
2023/10/04 09:36:43;;;;;;;;;;;;;;;15.47;100.00;102427.09;4958474;28;19934;-86
2023/10/04 09:39:33;;;;;;;;;;;;;;;15.51;100.00;102430.50;4950684;28;19966;-88
2023/10/04 09:42:19;;;;;;;;;;;;;;;15.56;100.00;102430.31;4935860;28;20409;-88
2023/10/04 09:45:08;;;;;;;;;;;;;;;15.59;100.00;102420.38;4950389;28;19973;-84
2023/10/04 09:47:54;;;;;;;;;;;;;;;15.61;100.00;102418.53;4949206;28;19958;-91
2023/10/04 09:50:42;;;;;;;;;;;;;;;15.64;100.00;102414.00;4949449;28;19934;-88
2023/10/04 09:53:43;;;;;;;;;;;;;;;;;;;;;
2023/10/04 09:56:29;;;;;;;;;;;;;;;15.72;100.00;102399.41;4947338;28;19930;-89
2023/10/04 09:59:16;;;;;;;;;;;;;;;15.81;100.00;102403.47;4942546;28;19941;-88
2023/10/04 10:02:01;;;;;;;;;;;;;;;15.83;100.00;102404.28;4941329;28;19907;-89
2023/10/04 10:04:57;;;;;;;;;;;;;;;15.83;100.00;102401.59;5007435;23;19930;-89
2023/10/04 10:07:52;;;;;;;;;;;;;;;15.79;100.00;102394.66;4976253;28;19907;-91
2023/10/04 10:10:40;;;;;;;;;;;;;;;15.78;100.00;102408.06;4958528;28;19910;-88
2023/10/04 10:13:30;;;;;;;;;;;;;;;15.80;100.00;102403.53;4974946;28;19957;-89
2023/10/04 10:16:15;;;;;;;;;;;;;;;15.87;100.00;102407.69;4954848;28;19930;-90
2023/10/04 10:19:03;;;;;;;;;;;;;;;15.98;100.00;102404.56;4958763;28;19923;-90
2023/10/04 10:22:19;;;;;;;;;;;;;;;16.07;100.00;102414.84;4965089;28;19938;-88
2023/10/04 10:25:19;;;;;;;;;;;;;;;16.09;100.00;102407.66;4972302;28;19941;-86
2023/10/04 10:28:20;;;;;;;;;;;;;;;16.06;100.00;102410.44;4966287;28;20044;-88
2023/10/04 10:31:18;;;;;;;;;;;;;;;16.05;100.00;102416.72;4971955;28;19965;-87
2023/10/04 10:34:04;;;;;;;;;;;;;;;16.02;100.00;102415.06;4976654;28;19945;-88
2023/10/04 10:37:09;;;;;;;;;;;;;;;16.04;100.00;102417.66;4963846;28;19973;-85
2023/10/04 10:40:04;;;;;;;;;;;;;;;16.01;100.00;102409.75;4975252;28;19940;-85
2023/10/04 10:43:08;;;;;;;;;;;;;;;15.97;100.00;102409.03;4977942;28;19937;-87
2023/10/04 10:45:59;;;;;;;;;;;;;;;15.97;100.00;102410.84;4965191;28;19940;-87
2023/10/04 10:48:48;;;;;;;;;;;;;;;15.96;100.00;102411.78;4965615;28;19930;-82
2023/10/04 10:51:43;;;;;;;;;;;;;;;15.96;100.00;102419.81;4965195;28;19984;-88
2023/10/04 10:54:29;;;;;;;;;;;;;;;15.96;100.00;102422.47;4966473;28;19941;-89
2023/10/04 10:57:15;;;;;;;;;;;;;;;15.96;100.00;102417.97;4969926;28;19969;-88
2023/10/04 11:03:04;;;;;;;;;;;;;;;15.96;100.00;102417.13;4940150;28;20079;-87
2023/10/04 11:05:50;;;;;;;;;;;;;;;15.98;100.00;102410.78;4947517;28;19926;-88
2023/10/04 11:08:39;;;;;;;;;;;;;;;15.99;100.00;102403.63;4937846;28;19957;-85
2023/10/04 11:11:27;;;;;;;;;;;;;;;16.01;100.00;102409.75;4931351;28;19937;-87
2023/10/04 11:14:17;;;;;;;;;;;;;;;16.05;100.00;102413.16;4934999;28;20421;-88
2023/10/04 11:17:04;;;;;;;;;;;;;;;16.06;100.00;102413.09;4934133;28;19931;-90
2023/10/04 11:19:54;;;;;;;;;;;;;;;16.14;100.00;102404.78;4993734;23;19924;-84
2023/10/04 11:22:44;;;;;;;;;;;;;;;16.15;100.00;102410.06;4943634;28;19941;-88
2023/10/04 11:25:31;;;;;;;;;;;;;;;16.17;100.00;102407.28;4951111;28;20537;-90
2023/10/04 11:28:17;;;;;;;;;;;;;;;16.20;100.00;102404.50;4937723;28;20004;-86
2023/10/04 11:31:07;;;;;;;;;;;;;;;16.21;100.00;102400.88;4948377;28;19926;-87
2023/10/04 11:33:55;;;;;;;;;;;;;;;16.23;100.00;102393.66;4960640;28;20374;-86
2023/10/04 11:36:50;;;;;;;;;;;;;;;16.23;100.00;102392.81;4948571;28;20796;-88
2023/10/04 11:39:36;;;;;;;;;;;;;;;16.25;100.00;102391.78;4958595;28;19926;-86
2023/10/04 11:42:24;;;;;;;;;;;;;;;16.26;100.00;102392.66;4954835;28;19949;-83
2023/10/04 11:45:17;;;;;;;;;;;;;;;16.28;100.00;102393.44;4938222;28;20200;-87
2023/10/04 11:48:05;;;;;;;;;;;;;;;16.29;100.00;102389.88;4956913;28;19930;-85
2023/10/04 11:50:53;;;;;;;;;;;;;;;16.31;100.00;102390.66;4965241;28;20010;-85
2023/10/04 11:53:41;;;;;;;;;;;;;;;16.33;100.00;102386.09;4942956;28;19930;-85
2023/10/04 11:56:33;;;;;;;;;;;;;;;16.33;100.00;102383.41;4962175;28;20302;-85
2023/10/04 11:59:28;;;;;;;;;;;;;;;16.34;100.00;102382.47;4943697;28;20634;-86
2023/10/04 12:02:15;;;;;;;;;;;;;;;16.34;100.00;102378.97;4930339;28;19958;-84
2023/10/04 12:05:02;;;;;;;;;;;;;;;16.33;100.00;102366.53;4935240;28;20011;-87
2023/10/04 12:07:48;;;;;;;;;;;;;;;16.33;100.00;102361.19;4922930;29;19937;-85
2023/10/04 12:10:34;;;;;;;;;;;;;;;16.33;100.00;102369.22;4919430;28;20151;-84
2023/10/04 12:13:20;;;;;;;;;;;;;;;16.36;100.00;102371.72;4915521;28;19954;-85
2023/10/04 12:16:06;;;;;;;;;;;;;;;16.35;100.00;102368.19;4934448;29;19937;-85
2023/10/04 12:18:51;;;;;;;;;;;;;;;16.37;100.00;102363.66;4937100;29;19930;-88
2023/10/04 12:21:38;;;;;;;;;;;;;;;16.39;100.00;102366.22;4923354;28;19934;-85
2023/10/04 12:24:23;;;;;;;;;;;;;;;16.38;100.00;102370.72;4906846;29;19946;-83
2023/10/04 12:27:16;;;;;;;;;;;;;;;16.34;100.00;102363.78;4938139;28;19931;-86
2023/10/04 12:30:05;;;;;;;;;;;;;;;16.35;100.00;102356.63;4928332;28;19937;-84
2023/10/04 12:32:59;;;;;;;;;;;;;;;16.37;100.00;102352.97;4938876;28;19923;-85
2023/10/04 12:35:45;;;;;;;;;;;;;;;16.43;100.00;102347.34;4933957;29;19942;-86
2023/10/04 12:38:31;;;;;;;;;;;;;;;16.42;100.00;102356.28;4925788;29;19935;-86
2023/10/04 12:41:16;;;;;;;;;;;;;;;16.46;100.00;102362.38;4932979;28;19995;-87
2023/10/04 12:44:02;;;;;;;;;;;;;;;16.46;100.00;102353.47;4938276;28;20084;-84
2023/10/04 12:46:48;;;;;;;;;;;;;;;16.48;100.00;102351.56;4943230;28;19931;-86
2023/10/04 12:49:34;;;;;;;;;;;;;;;16.46;100.00;102351.69;4937412;29;19993;-87
2023/10/04 12:52:24;;;;;;;;;;;;;;;16.47;100.00;102350.72;4924068;29;19939;-87
2023/10/04 12:55:12;;;;;;;;;;;;;;;16.47;100.00;102349.84;4937598;28;19941;-87
2023/10/04 12:57:59;;;;;;;;;;;;;;;16.46;100.00;102345.44;4936798;28;19938;-85
2023/10/04 13:00:45;;;;;;;;;;;;;;;16.45;100.00;102338.38;4936763;29;19969;-85
2023/10/04 13:03:31;;;;;;;;;;;;;;;16.45;100.00;102343.72;4923333;29;19966;-84
2023/10/04 13:06:17;;;;;;;;;;;;;;;16.42;100.00;102342.94;4937808;28;19937;-85
2023/10/04 13:09:03;;;;;;;;;;;;;;;16.43;100.00;102339.31;4935583;29;19934;-85
2023/10/04 13:11:52;;;;;;;;;;;;;;;16.43;100.00;102342.00;4931263;28;20259;-85
2023/10/04 13:14:38;;;;;;;;;;;;;;;16.45;100.00;102344.56;4932998;29;19948;-84
2023/10/04 13:17:23;;;;;;;;;;;;;;;16.43;100.00;102341.09;4906916;29;19942;-86
2023/10/04 13:20:24;;;;;;;;;;;;;;;16.39;100.00;102336.84;4932689;28;21512;-86
2023/10/04 13:23:12;;;;;;;;;;;;;;;16.34;100.00;102337.06;4918379;28;20415;-88
2023/10/04 13:25:58;;;;;;;;;;;;;;;16.27;100.00;102335.59;4933632;28;19934;-89
2023/10/04 13:28:44;;;;;;;;;;;;;;;16.20;100.00;102334.16;4921516;29;19981;-88
2023/10/04 13:31:30;;;;;;;;;;;;;;;16.17;100.00;102337.81;4905195;29;20048;-88
2023/10/04 13:34:15;;;;;;;;;;;;;;;16.17;100.00;102328.97;4933110;28;19998;-87
2023/10/04 13:37:01;;;;;;;;;;;;;;;16.14;100.00;102337.97;4933385;29;20874;-88
2023/10/04 13:39:47;;;;;;;;;;;;;;;16.12;100.00;102329.19;4934503;29;19922;-90
2023/10/04 13:42:34;;;;;;;;;;;;;;;16.12;100.00;102338.03;4939223;28;20523;-89
2023/10/04 13:53:05;;;;;;;;;;;;;;;16.11;100.00;102338.09;5698181;22;20062;-86
2023/10/04 13:55:51;;;;;;;;;;;;;;;16.10;100.00;102328.34;4963853;28;19929;-89
2023/10/04 13:58:38;;;;;;;;;;;;;;;16.11;100.00;102316.72;4998193;28;20558;-89
2023/10/04 14:01:29;;;;;;;;;;;;;;;16.09;100.00;102321.28;4999052;28;19984;-87
2023/10/04 14:04:16;;;;;;;;;;;;;;;16.07;100.00;102309.81;4964607;28;19945;-90
2023/10/04 14:07:03;;;;;;;;;;;;;;;16.08;100.00;102323.06;4975388;28;19933;-86
2023/10/04 14:09:49;;;;;;;;;;;;;;;16.09;100.00;102321.28;4975631;28;19993;-90
2023/10/04 14:12:35;;;;;;;;;;;;;;;16.07;100.00;102316.00;4969729;28;20469;-86
2023/10/04 14:15:21;;;;;;;;;;;;;;;16.07;100.00;102301.81;4977514;28;19973;-86
2023/10/04 14:18:08;;;;;;;;;;;;;;;16.07;100.00;102307.16;4984002;28;19922;-86
2023/10/04 14:20:57;;;;;;;;;;;;;;;16.09;100.00;102310.59;4970633;28;20013;-89
2023/10/04 14:23:42;;;;;;;;;;;;;;;16.06;100.00;102308.94;4980448;28;19933;-90
2023/10/04 14:26:28;;;;;;;;;;;;;;;16.06;100.00;102308.94;4975252;28;20407;-88
2023/10/04 14:29:14;;;;;;;;;;;;;;;16.07;100.00;102296.47;4962058;28;19988;-90
2023/10/04 14:32:03;;;;;;;;;;;;;;;16.04;100.00;102302.81;4981165;28;19922;-88
2023/10/04 14:34:50;;;;;;;;;;;;;;;16.03;100.00;102298.41;4971663;28;19930;-91
2023/10/04 14:37:38;;;;;;;;;;;;;;;15.99;100.00;102296.78;4975285;28;20410;-90
2023/10/04 14:40:26;;;;;;;;;;;;;;;15.95;100.00;102295.22;4955262;28;19929;-89
2023/10/04 14:43:12;;;;;;;;;;;;;;;15.91;100.00;102294.44;4951473;28;19932;-91
2023/10/04 14:46:00;;;;;;;;;;;;;;;15.85;100.00;102298.25;4959227;28;19936;-88
2023/10/04 14:48:46;;;;;;;;;;;;;;;15.84;100.00;102291.19;4957220;28;20346;-89
2023/10/04 14:51:32;;;;;;;;;;;;;;;15.77;100.00;102303.06;4962720;28;19930;-85
2023/10/04 14:54:18;;;;;;;;;;;;;;;15.71;100.00;102290.00;4982233;28;19929;-87
2023/10/04 14:57:03;;;;;;;;;;;;;;;15.66;100.00;102282.19;4962976;28;19926;-87
2023/10/04 14:59:50;;;;;;;;;;;;;;;15.62;100.00;102280.59;4971573;28;19993;-89